sensor_id;sensor_type;location;lat;lon;timestamp;pressure;altitude;pressure_sealevel;temperature;humidity
12868;BME280;33517;49.866;8.320;2023-02-02T00:01:12;100985.94;;;7.90;83.92
12868;BME280;33517;49.866;8.320;2023-02-02T00:04:04;100976.81;;;7.94;84.97
12868;BME280;33517;49.866;8.320;2023-02-02T00:06:58;100976.69;;;7.96;84.00
12868;BME280;33517;49.866;8.320;2023-02-02T00:09:50;100960.84;;;7.97;84.13
12868;BME280;33517;49.866;8.320;2023-02-02T00:12:42;100956.53;;;7.96;84.18
12868;BME280;33517;49.866;8.320;2023-02-02T00:15:34;100965.09;;;7.98;84.45
12868;BME280;33517;49.866;8.320;2023-02-02T00:18:26;100954.91;;;7.95;84.16
12868;BME280;33517;49.866;8.320;2023-02-02T00:21:17;100964.41;;;7.96;85.16
12868;BME280;33517;49.866;8.320;2023-02-02T00:24:12;100971.72;;;7.93;84.86
12868;BME280;33517;49.866;8.320;2023-02-02T00:27:04;100971.72;;;7.93;85.29
12868;BME280;33517;49.866;8.320;2023-02-02T00:29:56;100976.94;;;7.93;84.51
12868;BME280;33517;49.866;8.320;2023-02-02T00:32:48;100985.66;;;7.93;84.60
12868;BME280;33517;49.866;8.320;2023-02-02T00:35:41;100972.28;;;7.96;84.78
12868;BME280;33517;49.866;8.320;2023-02-02T00:38:33;100973.81;;;7.99;84.66
12868;BME280;33517;49.866;8.320;2023-02-02T00:41:28;100961.78;;;7.96;85.51
12868;BME280;33517;49.866;8.320;2023-02-02T00:44:20;100978.63;;;7.94;85.76
12868;BME280;33517;49.866;8.320;2023-02-02T00:47:29;100980.69;;;7.90;85.03
12868;BME280;33517;49.866;8.320;2023-02-02T00:50:21;100990.34;;;7.90;85.20
12868;BME280;33517;49.866;8.320;2023-02-02T00:53:13;100988.06;;;7.76;87.32
12868;BME280;33517;49.866;8.320;2023-02-02T00:56:05;100991.50;;;7.67;87.83
12868;BME280;33517;49.866;8.320;2023-02-02T00:58:59;100987.22;;;7.66;88.73
12868;BME280;33517;49.866;8.320;2023-02-02T01:01:50;100990.66;;;7.66;89.46
12868;BME280;33517;49.866;8.320;2023-02-02T01:04:42;100987.50;;;7.72;88.81
12868;BME280;33517;49.866;8.320;2023-02-02T01:07:34;100996.59;;;7.68;89.96
12868;BME280;33517;49.866;8.320;2023-02-02T01:10:26;100997.16;;;7.72;88.84
12868;BME280;33517;49.866;8.320;2023-02-02T01:13:18;100998.69;;;7.74;88.76
12868;BME280;33517;49.866;8.320;2023-02-02T01:16:11;100992.38;;;7.77;88.83
12868;BME280;33517;49.866;8.320;2023-02-02T01:19:03;100998.56;;;7.76;88.64
12868;BME280;33517;49.866;8.320;2023-02-02T01:21:55;100997.47;;;7.78;88.43
12868;BME280;33517;49.866;8.320;2023-02-02T01:24:47;100988.78;;;7.78;89.29
12868;BME280;33517;49.866;8.320;2023-02-02T01:27:39;100996.78;;;7.76;89.73
12868;BME280;33517;49.866;8.320;2023-02-02T01:30:31;100992.09;;;7.80;89.75
12868;BME280;33517;49.866;8.320;2023-02-02T01:33:24;100988.25;;;7.84;88.80
12868;BME280;33517;49.866;8.320;2023-02-02T01:36:18;100988.81;;;7.87;88.53
12868;BME280;33517;49.866;8.320;2023-02-02T01:39:10;100999.59;;;7.94;88.98
12868;BME280;33517;49.866;8.320;2023-02-02T01:42:11;100992.00;;;8.00;87.68
12868;BME280;33517;49.866;8.320;2023-02-02T01:45:15;100997.69;;;8.05;87.30
12868;BME280;33517;49.866;8.320;2023-02-02T01:48:07;101000.69;;;8.01;87.88
12868;BME280;33517;49.866;8.320;2023-02-02T01:51:03;100994.06;;;7.97;88.28
12868;BME280;33517;49.866;8.320;2023-02-02T01:53:56;101002.50;;;8.00;87.82
12868;BME280;33517;49.866;8.320;2023-02-02T01:56:56;100996.16;;;8.03;87.64
12868;BME280;33517;49.866;8.320;2023-02-02T01:59:51;100995.19;;;8.04;86.94
12868;BME280;33517;49.866;8.320;2023-02-02T02:02:47;101001.28;;;8.14;86.76
12868;BME280;33517;49.866;8.320;2023-02-02T02:05:41;101011.06;;;8.12;87.31
12868;BME280;33517;49.866;8.320;2023-02-02T02:08:37;101006.81;;;8.11;86.82
12868;BME280;33517;49.866;8.320;2023-02-02T02:11:30;101006.09;;;8.09;86.38
12868;BME280;33517;49.866;8.320;2023-02-02T02:14:22;101004.03;;;8.12;86.86
12868;BME280;33517;49.866;8.320;2023-02-02T02:17:45;100993.41;;;8.14;86.07
12868;BME280;33517;49.866;8.320;2023-02-02T02:21:08;101005.16;;;8.19;87.12
12868;BME280;33517;49.866;8.320;2023-02-02T02:24:55;101006.44;;;8.25;86.57
12868;BME280;33517;49.866;8.320;2023-02-02T02:31:55;100999.34;;;8.16;87.14
12868;BME280;33517;49.866;8.320;2023-02-02T02:34:53;101000.88;;;8.18;86.80
12868;BME280;33517;49.866;8.320;2023-02-02T02:37:49;101006.66;;;8.12;87.93
12868;BME280;33517;49.866;8.320;2023-02-02T02:40:48;101006.53;;;8.14;88.49
12868;BME280;33517;49.866;8.320;2023-02-02T02:43:46;100988.16;;;8.04;88.88
12868;BME280;33517;49.866;8.320;2023-02-02T02:46:39;101002.38;;;8.02;88.37
12868;BME280;33517;49.866;8.320;2023-02-02T02:49:40;101007.63;;;8.02;88.38
12868;BME280;33517;49.866;8.320;2023-02-02T02:52:33;100997.25;;;8.00;89.36
12868;BME280;33517;49.866;8.320;2023-02-02T02:55:32;101004.72;;;8.05;88.56
12868;BME280;33517;49.866;8.320;2023-02-02T02:58:35;100997.69;;;8.05;88.13
12868;BME280;33517;49.866;8.320;2023-02-02T03:01:36;100995.59;;;7.99;88.83
12868;BME280;33517;49.866;8.320;2023-02-02T03:04:37;100989.81;;;7.96;88.19
12868;BME280;33517;49.866;8.320;2023-02-02T03:07:36;101009.50;;;7.90;87.88
12868;BME280;33517;49.866;8.320;2023-02-02T03:10:29;100996.53;;;7.89;88.57
12868;BME280;33517;49.866;8.320;2023-02-02T03:13:22;100994.34;;;7.94;88.99
12868;BME280;33517;49.866;8.320;2023-02-02T03:16:15;100995.59;;;7.99;88.18
12868;BME280;33517;49.866;8.320;2023-02-02T03:19:07;100980.03;;;8.07;88.22
12868;BME280;33517;49.866;8.320;2023-02-02T03:22:01;100980.16;;;8.06;87.70
12868;BME280;33517;49.866;8.320;2023-02-02T03:24:52;100992.44;;;8.05;87.89
12868;BME280;33517;49.866;8.320;2023-02-02T03:27:46;100989.94;;;8.04;88.53
12868;BME280;33517;49.866;8.320;2023-02-02T03:30:39;100980.72;;;8.00;87.98
12868;BME280;33517;49.866;8.320;2023-02-02T03:33:34;100980.69;;;7.90;88.64
12868;BME280;33517;49.866;8.320;2023-02-02T03:36:27;100977.63;;;7.85;88.51
12868;BME280;33517;49.866;8.320;2023-02-02T03:39:20;100986.31;;;7.86;88.32
12868;BME280;33517;49.866;8.320;2023-02-02T03:42:12;100994.31;;;7.84;88.90
12868;BME280;33517;49.866;8.320;2023-02-02T03:45:05;101000.50;;;7.83;89.08
12868;BME280;33517;49.866;8.320;2023-02-02T03:47:57;100998.72;;;7.84;89.37
12868;BME280;33517;49.866;8.320;2023-02-02T03:50:49;100996.66;;;7.87;88.54
12868;BME280;33517;49.866;8.320;2023-02-02T03:53:41;101001.06;;;7.87;88.84
12868;BME280;33517;49.866;8.320;2023-02-02T03:56:38;100994.75;;;7.89;89.61
12868;BME280;33517;49.866;8.320;2023-02-02T03:59:30;100984.81;;;7.93;89.82
12868;BME280;33517;49.866;8.320;2023-02-02T04:02:22;100988.28;;;7.93;89.20
12868;BME280;33517;49.866;8.320;2023-02-02T04:05:14;100994.91;;;7.97;89.04
12868;BME280;33517;49.866;8.320;2023-02-02T04:08:05;100990.75;;;7.95;89.07
12868;BME280;33517;49.866;8.320;2023-02-02T04:10:57;101000.97;;;7.98;89.89
12868;BME280;33517;49.866;8.320;2023-02-02T04:13:51;101006.63;;;8.03;89.85
12868;BME280;33517;49.866;8.320;2023-02-02T04:16:43;101011.03;;;8.02;88.84
12868;BME280;33517;49.866;8.320;2023-02-02T04:19:35;101010.34;;;8.00;89.83
12868;BME280;33517;49.866;8.320;2023-02-02T04:22:27;101014.38;;;8.04;89.10
12868;BME280;33517;49.866;8.320;2023-02-02T04:25:18;101013.28;;;8.07;89.20
12868;BME280;33517;49.866;8.320;2023-02-02T04:28:10;101017.28;;;8.11;88.39
12868;BME280;33517;49.866;8.320;2023-02-02T04:31:04;101019.94;;;8.20;88.10
12868;BME280;33517;49.866;8.320;2023-02-02T04:33:56;101017.44;;;8.19;87.96
12868;BME280;33517;49.866;8.320;2023-02-02T04:36:48;101018.41;;;8.18;88.63
12868;BME280;33517;49.866;8.320;2023-02-02T04:39:39;101017.00;;;8.14;88.01
12868;BME280;33517;49.866;8.320;2023-02-02T04:42:31;101028.31;;;8.05;87.42
12868;BME280;33517;49.866;8.320;2023-02-02T04:45:24;101032.44;;;7.98;88.43
12868;BME280;33517;49.866;8.320;2023-02-02T04:48:18;101028.97;;;7.97;88.79
12868;BME280;33517;49.866;8.320;2023-02-02T04:51:11;101035.06;;;7.98;88.50
12868;BME280;33517;49.866;8.320;2023-02-02T04:54:04;101038.47;;;7.98;88.38
12868;BME280;33517;49.866;8.320;2023-02-02T04:56:56;101048.00;;;7.99;87.37
12868;BME280;33517;49.866;8.320;2023-02-02T04:59:48;101039.31;;;7.99;88.08
12868;BME280;33517;49.866;8.320;2023-02-02T05:02:40;101050.22;;;8.04;88.09
12868;BME280;33517;49.866;8.320;2023-02-02T05:05:33;101033.97;;;8.10;87.93
12868;BME280;33517;49.866;8.320;2023-02-02T05:08:25;101044.72;;;8.07;87.51
12868;BME280;33517;49.866;8.320;2023-02-02T05:11:19;101047.22;;;8.08;86.30
12868;BME280;33517;49.866;8.320;2023-02-02T05:14:11;101048.19;;;8.07;87.04
12868;BME280;33517;49.866;8.320;2023-02-02T05:17:03;101049.13;;;8.06;86.58
12868;BME280;33517;49.866;8.320;2023-02-02T05:19:55;101059.09;;;8.12;86.88
12868;BME280;33517;49.866;8.320;2023-02-02T05:22:49;101055.06;;;8.08;87.35
12868;BME280;33517;49.866;8.320;2023-02-02T05:25:41;101070.81;;;8.08;87.58
12868;BME280;33517;49.866;8.320;2023-02-02T05:28:33;101064.03;;;8.06;86.79
12868;BME280;33517;49.866;8.320;2023-02-02T05:31:25;101071.88;;;8.06;87.62
12868;BME280;33517;49.866;8.320;2023-02-02T05:34:17;101074.63;;;8.04;87.60
12868;BME280;33517;49.866;8.320;2023-02-02T05:37:09;101075.09;;;8.09;87.75
12868;BME280;33517;49.866;8.320;2023-02-02T05:40:03;101077.72;;;8.09;87.50
12868;BME280;33517;49.866;8.320;2023-02-02T05:42:55;101081.16;;;8.10;87.60
12868;BME280;33517;49.866;8.320;2023-02-02T05:45:47;101087.22;;;8.10;87.83
12868;BME280;33517;49.866;8.320;2023-02-02T05:48:39;101077.44;;;8.12;86.89
12868;BME280;33517;49.866;8.320;2023-02-02T05:51:33;101067.09;;;8.11;87.61
12868;BME280;33517;49.866;8.320;2023-02-02T05:54:26;101073.41;;;8.08;87.78
12868;BME280;33517;49.866;8.320;2023-02-02T05:57:19;101078.81;;;8.07;88.20
12868;BME280;33517;49.866;8.320;2023-02-02T06:00:12;101078.09;;;8.05;87.55
12868;BME280;33517;49.866;8.320;2023-02-02T06:03:04;101083.72;;;8.00;87.73
12868;BME280;33517;49.866;8.320;2023-02-02T06:05:56;101086.88;;;7.94;88.13
12868;BME280;33517;49.866;8.320;2023-02-02T06:08:48;101084.25;;;7.94;87.49
12868;BME280;33517;49.866;8.320;2023-02-02T06:11:42;101084.53;;;7.91;87.98
12868;BME280;33517;49.866;8.320;2023-02-02T06:14:35;101077.88;;;7.87;88.63
12868;BME280;33517;49.866;8.320;2023-02-02T06:17:27;101078.28;;;7.83;87.84
12868;BME280;33517;49.866;8.320;2023-02-02T06:20:19;101081.44;;;7.77;87.82
12868;BME280;33517;49.866;8.320;2023-02-02T06:23:11;101091.91;;;7.77;88.39
12868;BME280;33517;49.866;8.320;2023-02-02T06:26:03;101077.84;;;7.78;89.11
12868;BME280;33517;49.866;8.320;2023-02-02T06:28:55;101094.97;;;7.82;88.39
12868;BME280;33517;49.866;8.320;2023-02-02T06:31:48;101105.16;;;7.85;89.52
12868;BME280;33517;49.866;8.320;2023-02-02T06:34:40;101106.56;;;7.89;89.51
12868;BME280;33517;49.866;8.320;2023-02-02T06:37:32;101111.81;;;7.89;88.86
12868;BME280;33517;49.866;8.320;2023-02-02T06:40:24;101125.22;;;7.95;89.00
12868;BME280;33517;49.866;8.320;2023-02-02T06:43:16;101111.16;;;7.96;88.96
12868;BME280;33517;49.866;8.320;2023-02-02T06:46:08;101097.66;;;8.01;88.66
12868;BME280;33517;49.866;8.320;2023-02-02T06:49:02;101099.41;;;7.91;88.76
12868;BME280;33517;49.866;8.320;2023-02-02T06:51:54;101094.88;;;7.93;89.32
12868;BME280;33517;49.866;8.320;2023-02-02T06:54:45;101089.91;;;7.90;88.84
12868;BME280;33517;49.866;8.320;2023-02-02T06:57:37;101100.94;;;7.93;88.93
12868;BME280;33517;49.866;8.320;2023-02-02T07:00:29;101111.16;;;7.96;88.97
12868;BME280;33517;49.866;8.320;2023-02-02T07:03:21;101109.81;;;8.02;89.29
12868;BME280;33517;49.866;8.320;2023-02-02T07:06:17;101110.50;;;8.04;87.88
12868;BME280;33517;49.866;8.320;2023-02-02T07:09:09;101109.88;;;8.11;88.51
12868;BME280;33517;49.866;8.320;2023-02-02T07:12:01;101108.06;;;8.12;87.48
12868;BME280;33517;49.866;8.320;2023-02-02T07:14:52;101113.16;;;8.13;88.05
12868;BME280;33517;49.866;8.320;2023-02-02T07:17:44;101103.50;;;8.14;88.31
12868;BME280;33517;49.866;8.320;2023-02-02T07:20:36;101111.00;;;8.18;87.35
12868;BME280;33517;49.866;8.320;2023-02-02T07:23:31;101121.47;;;8.18;88.05
12868;BME280;33517;49.866;8.320;2023-02-02T07:26:23;101117.59;;;8.13;87.01
12868;BME280;33517;49.866;8.320;2023-02-02T07:29:17;101121.84;;;8.14;87.68
12868;BME280;33517;49.866;8.320;2023-02-02T07:32:08;101117.63;;;8.22;86.53
12868;BME280;33517;49.866;8.320;2023-02-02T07:35:00;101120.84;;;8.26;87.33
12868;BME280;33517;49.866;8.320;2023-02-02T07:37:53;101123.19;;;8.29;86.41
12868;BME280;33517;49.866;8.320;2023-02-02T07:40:47;101130.94;;;8.30;86.98
12868;BME280;33517;49.866;8.320;2023-02-02T07:43:39;101126.66;;;8.29;86.51
12868;BME280;33517;49.866;8.320;2023-02-02T07:46:31;101130.94;;;8.30;86.29
12868;BME280;33517;49.866;8.320;2023-02-02T07:49:22;101140.88;;;8.36;86.30
12868;BME280;33517;49.866;8.320;2023-02-02T07:52:14;101143.09;;;8.41;86.20
12868;BME280;33517;49.866;8.320;2023-02-02T07:55:07;101140.91;;;8.46;84.99
12868;BME280;33517;49.866;8.320;2023-02-02T07:58:02;101132.78;;;8.49;84.76
12868;BME280;33517;49.866;8.320;2023-02-02T08:00:54;101149.91;;;8.53;84.64
12868;BME280;33517;49.866;8.320;2023-02-02T08:03:51;101144.38;;;8.56;84.71
12868;BME280;33517;49.866;8.320;2023-02-02T08:06:43;101144.25;;;8.58;83.57
12868;BME280;33517;49.866;8.320;2023-02-02T08:09:35;101138.31;;;8.56;83.79
12868;BME280;33517;49.866;8.320;2023-02-02T08:12:28;101138.91;;;8.59;84.08
12868;BME280;33517;49.866;8.320;2023-02-02T08:15:21;101146.91;;;8.67;83.62
12868;BME280;33517;49.866;8.320;2023-02-02T08:18:13;101147.59;;;8.69;83.45
12868;BME280;33517;49.866;8.320;2023-02-02T08:21:06;101146.38;;;8.73;82.14
12868;BME280;33517;49.866;8.320;2023-02-02T08:23:59;101151.47;;;8.75;82.14
12868;BME280;33517;49.866;8.320;2023-02-02T08:26:51;101157.84;;;8.72;82.11
12868;BME280;33517;49.866;8.320;2023-02-02T08:29:43;101157.16;;;8.80;82.66
12868;BME280;33517;49.866;8.320;2023-02-02T08:32:36;101151.09;;;8.89;82.05
12868;BME280;33517;49.866;8.320;2023-02-02T08:35:29;101168.09;;;8.94;80.77
12868;BME280;33517;49.866;8.320;2023-02-02T08:38:22;101167.84;;;8.97;80.77
12868;BME280;33517;49.866;8.320;2023-02-02T08:41:15;101164.63;;;9.03;79.67
12868;BME280;33517;49.866;8.320;2023-02-02T08:44:10;101179.56;;;9.03;79.51
12868;BME280;33517;49.866;8.320;2023-02-02T08:47:02;101175.28;;;9.11;79.84
12868;BME280;33517;49.866;8.320;2023-02-02T08:49:55;101182.06;;;9.14;79.69
12868;BME280;33517;49.866;8.320;2023-02-02T08:52:47;101183.03;;;9.22;79.88
12868;BME280;33517;49.866;8.320;2023-02-02T08:55:39;101168.41;;;9.20;79.06
12868;BME280;33517;49.866;8.320;2023-02-02T08:58:31;101185.53;;;9.34;79.06
12868;BME280;33517;49.866;8.320;2023-02-02T09:01:25;101180.84;;;9.47;78.07
12868;BME280;33517;49.866;8.320;2023-02-02T09:04:17;101181.25;;;9.42;77.73
12868;BME280;33517;49.866;8.320;2023-02-02T09:07:11;101177.91;;;9.40;77.30
12868;BME280;33517;49.866;8.320;2023-02-02T09:10:02;101175.84;;;9.44;77.42
12868;BME280;33517;49.866;8.320;2023-02-02T09:12:54;101178.47;;;9.44;77.50
12868;BME280;33517;49.866;8.320;2023-02-02T09:15:46;101176.66;;;9.54;77.55
12868;BME280;33517;49.866;8.320;2023-02-02T09:18:38;101185.38;;;9.54;76.25
12868;BME280;33517;49.866;8.320;2023-02-02T09:21:30;101181.09;;;9.53;76.56
12868;BME280;33517;49.866;8.320;2023-02-02T09:24:27;101177.91;;;9.50;75.93
12868;BME280;33517;49.866;8.320;2023-02-02T09:27:19;101176.97;;;9.51;76.07
12868;BME280;33517;49.866;8.320;2023-02-02T09:30:12;101178.34;;;9.55;76.56
12868;BME280;33517;49.866;8.320;2023-02-02T09:33:04;101194.38;;;9.52;76.35
12868;BME280;33517;49.866;8.320;2023-02-02T09:36:02;101190.50;;;9.56;76.10
12868;BME280;33517;49.866;8.320;2023-02-02T09:38:55;101194.13;;;9.55;75.57
12868;BME280;33517;49.866;8.320;2023-02-02T09:42:05;101188.03;;;9.54;75.74
12868;BME280;33517;49.866;8.320;2023-02-02T09:45:05;101186.22;;;9.64;75.33
12868;BME280;33517;49.866;8.320;2023-02-02T09:48:06;101201.41;;;9.80;75.18
12868;BME280;33517;49.866;8.320;2023-02-02T09:51:08;101205.28;;;9.85;74.94
12868;BME280;33517;49.866;8.320;2023-02-02T09:54:06;101202.19;;;9.99;74.68
12868;BME280;33517;49.866;8.320;2023-02-02T09:57:12;101209.13;;;10.00;73.18
12868;BME280;33517;49.866;8.320;2023-02-02T10:00:18;101213.84;;;9.97;73.39
12868;BME280;33517;49.866;8.320;2023-02-02T10:03:18;101228.91;;;9.95;73.63
12868;BME280;33517;49.866;8.320;2023-02-02T10:06:22;101238.75;;;9.93;74.00
12868;BME280;33517;49.866;8.320;2023-02-02T10:09:26;101240.69;;;9.91;73.90
12868;BME280;33517;49.866;8.320;2023-02-02T10:12:30;101238.75;;;9.93;74.26
12868;BME280;33517;49.866;8.320;2023-02-02T10:15:32;101248.97;;;9.96;74.42
12868;BME280;33517;49.866;8.320;2023-02-02T10:18:34;101238.19;;;9.99;74.38
12868;BME280;33517;49.866;8.320;2023-02-02T10:21:32;101253.97;;;9.89;74.02
12868;BME280;33517;49.866;8.320;2023-02-02T10:24:27;101256.63;;;9.80;74.24
12868;BME280;33517;49.866;8.320;2023-02-02T10:27:27;101260.34;;;9.77;74.22
12868;BME280;33517;49.866;8.320;2023-02-02T10:30:35;101257.03;;;9.75;74.43
12868;BME280;33517;49.866;8.320;2023-02-02T10:33:35;101266.44;;;9.78;74.81
12868;BME280;33517;49.866;8.320;2023-02-02T10:36:34;101248.97;;;9.86;74.50
12868;BME280;33517;49.866;8.320;2023-02-02T10:39:39;101249.53;;;9.80;74.35
12868;BME280;33517;49.866;8.320;2023-02-02T10:42:43;101263.66;;;9.89;74.49
12868;BME280;33517;49.866;8.320;2023-02-02T10:46:00;101266.25;;;10.08;74.44
12868;BME280;33517;49.866;8.320;2023-02-02T10:49:00;101256.03;;;10.14;73.90
12868;BME280;33517;49.866;8.320;2023-02-02T10:52:04;101263.31;;;10.40;73.73
12868;BME280;33517;49.866;8.320;2023-02-02T10:55:06;101262.00;;;10.53;72.99
12868;BME280;33517;49.866;8.320;2023-02-02T10:58:13;101250.88;;;10.69;72.45
12868;BME280;33517;49.866;8.320;2023-02-02T11:01:11;101246.56;;;10.95;72.20
12868;BME280;33517;49.866;8.320;2023-02-02T11:04:08;101249.88;;;11.24;70.85
12868;BME280;33517;49.866;8.320;2023-02-02T11:07:18;101242.75;;;11.34;69.82
12868;BME280;33517;49.866;8.320;2023-02-02T11:10:10;101240.72;;;11.46;69.38
12868;BME280;33517;49.866;8.320;2023-02-02T11:13:02;101248.72;;;11.71;69.28
12868;BME280;33517;49.866;8.320;2023-02-02T11:16:20;101250.28;;;11.82;68.08
12868;BME280;33517;49.866;8.320;2023-02-02T11:19:21;101228.66;;;11.61;68.36
12868;BME280;33517;49.866;8.320;2023-02-02T11:22:24;101250.41;;;11.28;68.98
12868;BME280;33517;49.866;8.320;2023-02-02T11:25:25;101259.78;;;11.12;69.39
12868;BME280;33517;49.866;8.320;2023-02-02T11:28:18;101246.78;;;11.11;69.54
12868;BME280;33517;49.866;8.320;2023-02-02T11:31:11;101251.31;;;11.19;69.35
12868;BME280;33517;49.866;8.320;2023-02-02T11:34:15;101252.34;;;11.08;69.72
12868;BME280;33517;49.866;8.320;2023-02-02T11:37:12;101251.91;;;10.85;70.78
12868;BME280;33517;49.866;8.320;2023-02-02T11:40:17;101260.09;;;10.82;71.62
12868;BME280;33517;49.866;8.320;2023-02-02T11:43:17;101258.94;;;10.94;71.19
12868;BME280;33517;49.866;8.320;2023-02-02T11:46:16;101259.84;;;10.76;70.87
12868;BME280;33517;49.866;8.320;2023-02-02T11:49:15;101254.91;;;10.63;71.43
12868;BME280;33517;49.866;8.320;2023-02-02T11:52:15;101252.03;;;10.57;71.71
12868;BME280;33517;49.866;8.320;2023-02-02T11:55:14;101261.06;;;10.54;72.34
12868;BME280;33517;49.866;8.320;2023-02-02T11:58:22;101257.88;;;10.78;71.81
12868;BME280;33517;49.866;8.320;2023-02-02T12:01:24;101247.63;;;10.84;71.92
12868;BME280;33517;49.866;8.320;2023-02-02T12:04:23;101236.59;;;10.98;70.63
12868;BME280;33517;49.866;8.320;2023-02-02T12:07:23;101242.09;;;10.78;71.28
12868;BME280;33517;49.866;8.320;2023-02-02T12:10:19;101251.03;;;10.67;71.90
12868;BME280;33517;49.866;8.320;2023-02-02T12:13:27;101245.69;;;10.50;72.78
12868;BME280;33517;49.866;8.320;2023-02-02T12:16:40;101250.69;;;10.43;72.61
12868;BME280;33517;49.866;8.320;2023-02-02T12:20:06;101240.09;;;10.62;73.08
12868;BME280;33517;49.866;8.320;2023-02-02T12:23:22;101245.66;;;10.59;72.70
12868;BME280;33517;49.866;8.320;2023-02-02T12:26:22;101244.97;;;10.57;72.62
12868;BME280;33517;49.866;8.320;2023-02-02T12:29:25;101254.13;;;10.53;73.08
12868;BME280;33517;49.866;8.320;2023-02-02T12:32:38;101256.38;;;10.48;73.63
12868;BME280;33517;49.866;8.320;2023-02-02T12:35:55;101253.34;;;10.34;74.05
12868;BME280;33517;49.866;8.320;2023-02-02T12:39:08;101251.69;;;10.33;74.47
12868;BME280;33517;49.866;8.320;2023-02-02T12:42:16;101241.97;;;10.43;74.20
12868;BME280;33517;49.866;8.320;2023-02-02T12:45:33;101235.38;;;10.66;72.82
12868;BME280;33517;49.866;8.320;2023-02-02T12:48:44;101240.78;;;10.91;72.25
12868;BME280;33517;49.866;8.320;2023-02-02T12:51:53;101240.09;;;10.89;72.23
12868;BME280;33517;49.866;8.320;2023-02-02T12:55:09;101239.34;;;10.70;73.21
12868;BME280;33517;49.866;8.320;2023-02-02T12:58:15;101238.94;;;10.74;73.17
12868;BME280;33517;49.866;8.320;2023-02-02T13:01:29;101242.41;;;10.75;73.05
12868;BME280;33517;49.866;8.320;2023-02-02T13:04:43;101243.28;;;10.66;73.50
12868;BME280;33517;49.866;8.320;2023-02-02T13:07:42;101242.97;;;10.69;73.79
12868;BME280;33517;49.866;8.320;2023-02-02T13:10:37;101242.81;;;10.70;73.22
12868;BME280;33517;49.866;8.320;2023-02-02T13:13:32;101257.09;;;10.77;73.28
12868;BME280;33517;49.866;8.320;2023-02-02T13:16:28;101252.66;;;10.68;73.20
12868;BME280;33517;49.866;8.320;2023-02-02T13:19:27;101255.06;;;10.62;73.71
12868;BME280;33517;49.866;8.320;2023-02-02T13:22:25;101261.94;;;10.72;73.76
12868;BME280;33517;49.866;8.320;2023-02-02T13:25:25;101257.13;;;10.68;73.90
12868;BME280;33517;49.866;8.320;2023-02-02T13:28:27;101262.25;;;10.69;73.68
12868;BME280;33517;49.866;8.320;2023-02-02T13:31:22;101267.25;;;10.63;73.58
12868;BME280;33517;49.866;8.320;2023-02-02T13:34:21;101272.91;;;10.68;73.76
12868;BME280;33517;49.866;8.320;2023-02-02T13:37:18;101280.41;;;10.63;74.14
12868;BME280;33517;49.866;8.320;2023-02-02T13:40:21;101273.34;;;10.63;73.92
12868;BME280;33517;49.866;8.320;2023-02-02T13:43:23;101288.44;;;10.61;74.44
12868;BME280;33517;49.866;8.320;2023-02-02T13:46:25;101269.91;;;10.53;74.14
12868;BME280;33517;49.866;8.320;2023-02-02T13:49:22;101273.09;;;10.47;74.61
12868;BME280;33517;49.866;8.320;2023-02-02T13:52:29;101287.09;;;10.48;74.44
12868;BME280;33517;49.866;8.320;2023-02-02T13:55:36;101280.44;;;10.53;74.58
12868;BME280;33517;49.866;8.320;2023-02-02T13:58:46;101281.31;;;10.44;75.08
12868;BME280;33517;49.866;8.320;2023-02-02T14:01:46;101282.69;;;10.48;74.82
12868;BME280;33517;49.866;8.320;2023-02-02T14:04:39;101276.69;;;10.56;74.93
12868;BME280;33517;49.866;8.320;2023-02-02T14:07:36;101288.34;;;10.44;74.94
12868;BME280;33517;49.866;8.320;2023-02-02T14:10:34;101292.09;;;10.41;75.74
12868;BME280;33517;49.866;8.320;2023-02-02T14:13:34;101282.84;;;10.37;75.11
12868;BME280;33517;49.866;8.320;2023-02-02T14:16:49;101282.81;;;10.47;75.24
12868;BME280;33517;49.866;8.320;2023-02-02T14:19:52;101293.19;;;10.48;75.25
12868;BME280;33517;49.866;8.320;2023-02-02T14:22:46;101300.94;;;10.50;74.99
12868;BME280;33517;49.866;8.320;2023-02-02T14:26:03;101303.97;;;10.55;75.19
12868;BME280;33517;49.866;8.320;2023-02-02T14:28:55;101308.69;;;10.51;74.95
12868;BME280;33517;49.866;8.320;2023-02-02T14:31:52;101296.91;;;10.55;74.65
12868;BME280;33517;49.866;8.320;2023-02-02T14:34:44;101301.78;;;10.50;75.06
12868;BME280;33517;49.866;8.320;2023-02-02T14:37:46;101314.53;;;10.45;75.04
12868;BME280;33517;49.866;8.320;2023-02-02T14:40:46;101323.13;;;10.38;75.38
12868;BME280;33517;49.866;8.320;2023-02-02T14:43:46;101323.00;;;10.39;75.74
12868;BME280;33517;49.866;8.320;2023-02-02T14:46:40;101325.91;;;10.36;75.64
12868;BME280;33517;49.866;8.320;2023-02-02T14:49:37;101330.06;;;10.39;75.56
12868;BME280;33517;49.866;8.320;2023-02-02T14:52:30;101332.69;;;10.39;75.98
12868;BME280;33517;49.866;8.320;2023-02-02T14:55:23;101349.16;;;10.41;76.04
12868;BME280;33517;49.866;8.320;2023-02-02T14:58:22;101347.78;;;10.37;75.50
12868;BME280;33517;49.866;8.320;2023-02-02T15:01:24;101359.41;;;10.44;75.58
12868;BME280;33517;49.866;8.320;2023-02-02T15:04:23;101380.59;;;10.42;75.47
12868;BME280;33517;49.866;8.320;2023-02-02T15:11:07;101378.81;;;10.24;76.03
12868;BME280;33517;49.866;8.320;2023-02-02T15:14:18;101369.53;;;10.19;76.26
12868;BME280;33517;49.866;8.320;2023-02-02T15:17:21;101374.66;;;10.21;76.12
12868;BME280;33517;49.866;8.320;2023-02-02T15:20:20;101362.75;;;10.17;76.26
12868;BME280;33517;49.866;8.320;2023-02-02T15:23:22;101365.25;;;10.18;76.39
12868;BME280;33517;49.866;8.320;2023-02-02T15:26:18;101368.00;;;10.17;76.57
12868;BME280;33517;49.866;8.320;2023-02-02T15:29:16;101387.41;;;10.16;76.35
12868;BME280;33517;49.866;8.320;2023-02-02T15:32:16;101373.81;;;10.11;76.46
12868;BME280;33517;49.866;8.320;2023-02-02T15:35:16;101398.47;;;10.10;76.45
12868;BME280;33517;49.866;8.320;2023-02-02T15:38:13;101390.13;;;10.05;76.41
12868;BME280;33517;49.866;8.320;2023-02-02T15:41:15;101405.09;;;10.04;76.70